sensor_id;sensor_type;location;lat;lon;timestamp;pressure;altitude;pressure_sealevel;temperature;humidity
11468;BME280;5790;42.762;23.430;2023-11-19T00:00:55;74174.47;;;-142.66;89.52
11468;BME280;5790;42.762;23.430;2023-11-19T00:03:22;74174.47;;;-142.66;89.83
11468;BME280;5790;42.762;23.430;2023-11-19T00:05:49;74178.56;;;-142.66;89.57
11468;BME280;5790;42.762;23.430;2023-11-19T00:08:16;74182.63;;;-142.66;90.13
11468;BME280;5790;42.762;23.430;2023-11-19T00:10:43;74178.56;;;-142.66;89.84
11468;BME280;5790;42.762;23.430;2023-11-19T00:13:12;74180.59;;;-142.66;89.68
11468;BME280;5790;42.762;23.430;2023-11-19T00:15:40;74192.84;;;-142.66;89.58
11468;BME280;5790;42.762;23.430;2023-11-19T00:18:07;74184.69;;;-142.66;89.52
11468;BME280;5790;42.762;23.430;2023-11-19T00:20:34;74184.69;;;-142.66;89.32
11468;BME280;5790;42.762;23.430;2023-11-19T00:23:02;74178.56;;;-142.66;89.62
11468;BME280;5790;42.762;23.430;2023-11-19T00:25:29;74184.69;;;-142.66;89.37
11468;BME280;5790;42.762;23.430;2023-11-19T00:27:56;74178.56;;;-142.66;89.53
11468;BME280;5790;42.762;23.430;2023-11-19T00:30:23;74184.69;;;-142.66;89.05
11468;BME280;5790;42.762;23.430;2023-11-19T00:32:52;74184.69;;;-142.66;88.60
11468;BME280;5790;42.762;23.430;2023-11-19T00:35:19;74192.84;;;-142.66;88.76
11468;BME280;5790;42.762;23.430;2023-11-19T00:37:46;74194.91;;;-142.66;88.44
11468;BME280;5790;42.762;23.430;2023-11-19T00:40:13;74188.75;;;-142.66;88.44
11468;BME280;5790;42.762;23.430;2023-11-19T00:42:41;74201.03;;;-142.66;88.42
11468;BME280;5790;42.762;23.430;2023-11-19T00:45:09;74211.22;;;-142.66;88.44
11468;BME280;5790;42.762;23.430;2023-11-19T00:47:38;74205.09;;;-142.66;88.23
11468;BME280;5790;42.762;23.430;2023-11-19T00:50:07;74205.09;;;-142.66;88.20
11468;BME280;5790;42.762;23.430;2023-11-19T00:52:36;74211.22;;;-142.66;88.00
11468;BME280;5790;42.762;23.430;2023-11-19T00:55:04;74213.28;;;-142.66;88.50
11468;BME280;5790;42.762;23.430;2023-11-19T00:57:31;74213.28;;;-142.66;88.60
11468;BME280;5790;42.762;23.430;2023-11-19T00:59:59;74201.03;;;-142.66;88.50
11468;BME280;5790;42.762;23.430;2023-11-19T01:02:26;74211.22;;;-142.66;88.19
11468;BME280;5790;42.762;23.430;2023-11-19T01:04:53;74211.22;;;-142.66;88.26
11468;BME280;5790;42.762;23.430;2023-11-19T01:07:23;74205.09;;;-142.66;88.47
11468;BME280;5790;42.762;23.430;2023-11-19T01:09:52;74225.53;;;-142.66;88.52
11468;BME280;5790;42.762;23.430;2023-11-19T01:12:19;74203.06;;;-142.66;88.21
11468;BME280;5790;42.762;23.430;2023-11-19T01:14:46;74229.59;;;-142.66;88.15
11468;BME280;5790;42.762;23.430;2023-11-19T01:17:14;74219.41;;;-142.66;88.42
11468;BME280;5790;42.762;23.430;2023-11-19T01:19:42;74225.53;;;-142.66;88.61
11468;BME280;5790;42.762;23.430;2023-11-19T01:22:08;74219.41;;;-142.66;88.70
11468;BME280;5790;42.762;23.430;2023-11-19T01:24:37;74229.59;;;-142.66;88.85
11468;BME280;5790;42.762;23.430;2023-11-19T01:27:04;74219.41;;;-142.66;88.76
11468;BME280;5790;42.762;23.430;2023-11-19T01:29:31;74227.56;;;-142.66;89.15
11468;BME280;5790;42.762;23.430;2023-11-19T01:31:58;74229.59;;;-142.66;89.18
11468;BME280;5790;42.762;23.430;2023-11-19T01:34:25;74237.78;;;-142.66;89.24
11468;BME280;5790;42.762;23.430;2023-11-19T01:36:52;74233.69;;;-142.66;89.24
11468;BME280;5790;42.762;23.430;2023-11-19T01:39:19;74233.69;;;-142.66;88.83
11468;BME280;5790;42.762;23.430;2023-11-19T01:41:48;74237.78;;;-142.66;89.12
11468;BME280;5790;42.762;23.430;2023-11-19T01:44:15;74239.81;;;-142.66;89.35
11468;BME280;5790;42.762;23.430;2023-11-19T01:46:44;74243.91;;;-142.66;89.51
11468;BME280;5790;42.762;23.430;2023-11-19T01:49:14;74254.09;;;-142.66;89.57
11468;BME280;5790;42.762;23.430;2023-11-19T01:51:42;74247.97;;;-142.66;89.83
11468;BME280;5790;42.762;23.430;2023-11-19T01:54:09;74252.06;;;-142.66;89.89
11468;BME280;5790;42.762;23.430;2023-11-19T01:56:38;74245.94;;;-142.66;89.59
11468;BME280;5790;42.762;23.430;2023-11-19T01:59:07;74254.09;;;-142.66;89.18
11468;BME280;5790;42.762;23.430;2023-11-19T02:01:36;74252.06;;;-142.66;89.21
11468;BME280;5790;42.762;23.430;2023-11-19T02:04:05;74252.06;;;-142.66;89.16
11468;BME280;5790;42.762;23.430;2023-11-19T02:06:33;74239.81;;;-142.66;88.66
11468;BME280;5790;42.762;23.430;2023-11-19T02:09:01;74235.72;;;-142.66;88.59
11468;BME280;5790;42.762;23.430;2023-11-19T02:11:33;74262.28;;;-142.66;88.64
11468;BME280;5790;42.762;23.430;2023-11-19T02:14:00;74258.19;;;-142.66;89.00
11468;BME280;5790;42.762;23.430;2023-11-19T02:16:30;74252.06;;;-142.66;89.48
11468;BME280;5790;42.762;23.430;2023-11-19T02:18:57;74270.44;;;-142.66;89.51
11468;BME280;5790;42.762;23.430;2023-11-19T02:21:24;74270.44;;;-142.66;90.12
11468;BME280;5790;42.762;23.430;2023-11-19T02:23:51;74268.41;;;-142.66;90.08
11468;BME280;5790;42.762;23.430;2023-11-19T02:26:24;74264.31;;;-142.66;90.33
11468;BME280;5790;42.762;23.430;2023-11-19T02:28:56;74276.56;;;-142.66;89.93
11468;BME280;5790;42.762;23.430;2023-11-19T02:31:23;74270.44;;;-142.66;89.48
11468;BME280;5790;42.762;23.430;2023-11-19T02:33:50;74270.44;;;-142.66;89.49
11468;BME280;5790;42.762;23.430;2023-11-19T02:36:17;74268.41;;;-142.66;89.29
11468;BME280;5790;42.762;23.430;2023-11-19T02:38:44;74256.16;;;-142.66;89.28
11468;BME280;5790;42.762;23.430;2023-11-19T02:41:11;74258.19;;;-142.66;89.37
11468;BME280;5790;42.762;23.430;2023-11-19T02:43:38;74250.03;;;-142.66;88.66
11468;BME280;5790;42.762;23.430;2023-11-19T02:46:07;74258.19;;;-142.66;88.83
11468;BME280;5790;42.762;23.430;2023-11-19T02:48:34;74254.09;;;-142.66;88.37
11468;BME280;5790;42.762;23.430;2023-11-19T02:51:02;74254.09;;;-142.66;88.12
11468;BME280;5790;42.762;23.430;2023-11-19T02:53:30;74272.47;;;-142.66;88.12
11468;BME280;5790;42.762;23.430;2023-11-19T02:55:57;74272.47;;;-142.66;88.68
11468;BME280;5790;42.762;23.430;2023-11-19T02:58:31;74260.22;;;-142.66;87.74
11468;BME280;5790;42.762;23.430;2023-11-19T03:01:00;74260.22;;;-142.66;88.12
11468;BME280;5790;42.762;23.430;2023-11-19T03:03:37;74282.69;;;-142.66;88.51
11468;BME280;5790;42.762;23.430;2023-11-19T03:06:06;74274.53;;;-142.66;88.82
11468;BME280;5790;42.762;23.430;2023-11-19T03:08:35;74294.94;;;-142.66;88.74
11468;BME280;5790;42.762;23.430;2023-11-19T03:11:03;74292.91;;;-142.66;88.92
11468;BME280;5790;42.762;23.430;2023-11-19T03:13:30;74303.13;;;-142.66;89.01
11468;BME280;5790;42.762;23.430;2023-11-19T03:15:57;74307.19;;;-142.66;89.04
11468;BME280;5790;42.762;23.430;2023-11-19T03:18:24;74317.41;;;-142.66;88.71
11468;BME280;5790;42.762;23.430;2023-11-19T03:20:54;74305.16;;;-142.66;88.62
11468;BME280;5790;42.762;23.430;2023-11-19T03:23:21;74307.19;;;-142.66;88.34
11468;BME280;5790;42.762;23.430;2023-11-19T03:25:48;74311.28;;;-142.66;88.75
11468;BME280;5790;42.762;23.430;2023-11-19T03:28:15;74321.50;;;-142.66;88.62
11468;BME280;5790;42.762;23.430;2023-11-19T03:30:42;74319.44;;;-142.66;88.68
11468;BME280;5790;42.762;23.430;2023-11-19T03:33:09;74319.44;;;-142.66;88.80
11468;BME280;5790;42.762;23.430;2023-11-19T03:35:36;74329.66;;;-142.66;88.82
11468;BME280;5790;42.762;23.430;2023-11-19T03:38:05;74323.53;;;-142.66;88.92
11468;BME280;5790;42.762;23.430;2023-11-19T03:40:32;74319.44;;;-142.66;88.78
11468;BME280;5790;42.762;23.430;2023-11-19T03:42:59;74325.56;;;-142.66;88.60
11468;BME280;5790;42.762;23.430;2023-11-19T03:45:26;74327.63;;;-142.66;89.00
11468;BME280;5790;42.762;23.430;2023-11-19T03:47:53;74333.75;;;-142.66;89.18
11468;BME280;5790;42.762;23.430;2023-11-19T03:50:20;74339.88;;;-142.66;89.00
11468;BME280;5790;42.762;23.430;2023-11-19T03:52:47;74337.81;;;-142.66;89.09
11468;BME280;5790;42.762;23.430;2023-11-19T03:55:16;74331.69;;;-142.66;88.92
11468;BME280;5790;42.762;23.430;2023-11-19T03:57:43;74327.63;;;-142.66;88.66
11468;BME280;5790;42.762;23.430;2023-11-19T04:00:10;74317.41;;;-142.66;89.06
11468;BME280;5790;42.762;23.430;2023-11-19T04:02:39;74329.66;;;-142.66;88.85
11468;BME280;5790;42.762;23.430;2023-11-19T04:05:07;74327.63;;;-142.66;88.74
11468;BME280;5790;42.762;23.430;2023-11-19T04:07:35;74329.66;;;-142.66;88.98
11468;BME280;5790;42.762;23.430;2023-11-19T04:10:03;74337.81;;;-142.66;88.68
11468;BME280;5790;42.762;23.430;2023-11-19T04:12:31;74339.88;;;-142.66;88.99
11468;BME280;5790;42.762;23.430;2023-11-19T04:14:58;74337.81;;;-142.66;88.72
11468;BME280;5790;42.762;23.430;2023-11-19T04:17:26;74339.88;;;-142.66;88.95
11468;BME280;5790;42.762;23.430;2023-11-19T04:19:53;74348.03;;;-142.66;88.89
11468;BME280;5790;42.762;23.430;2023-11-19T04:22:21;74352.13;;;-142.66;89.12
11468;BME280;5790;42.762;23.430;2023-11-19T04:24:48;74358.25;;;-142.66;89.27
11468;BME280;5790;42.762;23.430;2023-11-19T04:27:15;74358.25;;;-142.66;89.40
11468;BME280;5790;42.762;23.430;2023-11-19T04:29:43;74348.03;;;-142.66;89.48
11468;BME280;5790;42.762;23.430;2023-11-19T04:32:11;74370.50;;;-142.66;89.71
11468;BME280;5790;42.762;23.430;2023-11-19T04:34:38;74372.53;;;-142.66;90.22
11468;BME280;5790;42.762;23.430;2023-11-19T04:37:06;74358.25;;;-142.66;90.23
11468;BME280;5790;42.762;23.430;2023-11-19T04:39:33;74380.72;;;-142.66;90.01
11468;BME280;5790;42.762;23.430;2023-11-19T04:42:00;74374.59;;;-142.66;90.12
11468;BME280;5790;42.762;23.430;2023-11-19T04:44:27;74366.41;;;-142.66;90.03
11468;BME280;5790;42.762;23.430;2023-11-19T04:46:56;74380.72;;;-142.66;90.29
11468;BME280;5790;42.762;23.430;2023-11-19T04:49:24;74376.63;;;-142.66;90.12
11468;BME280;5790;42.762;23.430;2023-11-19T04:51:52;74374.59;;;-142.66;90.19
11468;BME280;5790;42.762;23.430;2023-11-19T04:54:19;74376.63;;;-142.66;90.20
11468;BME280;5790;42.762;23.430;2023-11-19T04:56:46;74374.59;;;-142.66;89.87
11468;BME280;5790;42.762;23.430;2023-11-19T04:59:14;74378.66;;;-142.66;89.85
11468;BME280;5790;42.762;23.430;2023-11-19T05:01:41;74380.72;;;-142.66;89.86
11468;BME280;5790;42.762;23.430;2023-11-19T05:04:14;74374.59;;;-142.66;89.59
11468;BME280;5790;42.762;23.430;2023-11-19T05:06:41;74382.75;;;-142.66;89.90
11468;BME280;5790;42.762;23.430;2023-11-19T05:09:08;74392.97;;;-142.66;89.24
11468;BME280;5790;42.762;23.430;2023-11-19T05:11:37;74392.97;;;-142.66;89.65
11468;BME280;5790;42.762;23.430;2023-11-19T05:14:05;74397.03;;;-142.66;89.45
11468;BME280;5790;42.762;23.430;2023-11-19T05:16:33;74407.25;;;-142.66;89.46
11468;BME280;5790;42.762;23.430;2023-11-19T05:19:00;74392.97;;;-142.66;89.69
11468;BME280;5790;42.762;23.430;2023-11-19T05:21:29;74395.00;;;-142.66;89.27
11468;BME280;5790;42.762;23.430;2023-11-19T05:23:56;74405.22;;;-142.66;89.58
11468;BME280;5790;42.762;23.430;2023-11-19T05:26:24;74401.13;;;-142.66;89.84
11468;BME280;5790;42.762;23.430;2023-11-19T05:28:51;74411.34;;;-142.66;89.73
11468;BME280;5790;42.762;23.430;2023-11-19T05:31:18;74407.25;;;-142.66;89.70
11468;BME280;5790;42.762;23.430;2023-11-19T05:33:45;74407.25;;;-142.66;89.38
11468;BME280;5790;42.762;23.430;2023-11-19T05:36:12;74417.47;;;-142.66;89.72
11468;BME280;5790;42.762;23.430;2023-11-19T05:38:41;74419.50;;;-142.66;89.98
11468;BME280;5790;42.762;23.430;2023-11-19T05:41:08;74423.59;;;-142.66;89.95
11468;BME280;5790;42.762;23.430;2023-11-19T05:43:35;74429.72;;;-142.66;89.78
11468;BME280;5790;42.762;23.430;2023-11-19T05:46:03;74431.75;;;-142.66;89.56
11468;BME280;5790;42.762;23.430;2023-11-19T05:48:30;74427.69;;;-142.66;89.63
11468;BME280;5790;42.762;23.430;2023-11-19T05:50:57;74431.75;;;-142.66;89.77
11468;BME280;5790;42.762;23.430;2023-11-19T05:53:25;74421.53;;;-142.66;89.82
11468;BME280;5790;42.762;23.430;2023-11-19T05:55:54;74431.75;;;-142.66;89.90
11468;BME280;5790;42.762;23.430;2023-11-19T05:58:23;74437.88;;;-142.66;89.38
11468;BME280;5790;42.762;23.430;2023-11-19T06:00:54;74437.88;;;-142.66;89.60
11468;BME280;5790;42.762;23.430;2023-11-19T06:03:21;74448.09;;;-142.66;89.82
11468;BME280;5790;42.762;23.430;2023-11-19T06:05:49;74448.09;;;-142.66;89.72
11468;BME280;5790;42.762;23.430;2023-11-19T06:08:16;74448.09;;;-142.66;89.63
11468;BME280;5790;42.762;23.430;2023-11-19T06:10:43;74454.22;;;-142.66;89.48
11468;BME280;5790;42.762;23.430;2023-11-19T06:13:13;74460.34;;;-142.66;89.85
11468;BME280;5790;42.762;23.430;2023-11-19T06:15:41;74452.19;;;-142.66;89.79
11468;BME280;5790;42.762;23.430;2023-11-19T06:18:08;74446.06;;;-142.66;89.98
11468;BME280;5790;42.762;23.430;2023-11-19T06:20:37;74441.97;;;-142.66;89.88
11468;BME280;5790;42.762;23.430;2023-11-19T06:23:04;74448.09;;;-142.66;89.62
11468;BME280;5790;42.762;23.430;2023-11-19T06:25:31;74452.19;;;-142.66;89.46
11468;BME280;5790;42.762;23.430;2023-11-19T06:28:00;74448.09;;;-142.66;89.67
11468;BME280;5790;42.762;23.430;2023-11-19T06:30:29;74462.38;;;-142.66;89.71
11468;BME280;5790;42.762;23.430;2023-11-19T06:32:58;74468.50;;;-142.66;89.66
11468;BME280;5790;42.762;23.430;2023-11-19T06:35:25;74456.25;;;-142.66;89.62
11468;BME280;5790;42.762;23.430;2023-11-19T06:37:52;74466.47;;;-142.66;89.76
11468;BME280;5790;42.762;23.430;2023-11-19T06:40:20;74474.63;;;-142.66;89.86
11468;BME280;5790;42.762;23.430;2023-11-19T06:42:47;74472.59;;;-142.66;89.62
11468;BME280;5790;42.762;23.430;2023-11-19T06:45:14;74472.59;;;-142.66;89.84
11468;BME280;5790;42.762;23.430;2023-11-19T06:47:43;74476.69;;;-142.66;89.13
11468;BME280;5790;42.762;23.430;2023-11-19T06:50:10;74480.75;;;-142.66;89.41
11468;BME280;5790;42.762;23.430;2023-11-19T06:52:38;74472.59;;;-142.66;89.04
11468;BME280;5790;42.762;23.430;2023-11-19T06:55:06;74476.69;;;-142.66;88.66
11468;BME280;5790;42.762;23.430;2023-11-19T06:57:33;74480.75;;;-142.66;88.73
11468;BME280;5790;42.762;23.430;2023-11-19T07:00:00;74476.69;;;-142.66;88.69
11468;BME280;5790;42.762;23.430;2023-11-19T07:02:28;74480.75;;;-142.66;88.39
11468;BME280;5790;42.762;23.430;2023-11-19T07:04:57;74478.72;;;-142.66;88.56
11468;BME280;5790;42.762;23.430;2023-11-19T07:07:25;74468.50;;;-142.66;88.19
11468;BME280;5790;42.762;23.430;2023-11-19T07:09:53;74470.56;;;-142.66;88.30
11468;BME280;5790;42.762;23.430;2023-11-19T07:12:20;74460.34;;;-142.66;87.98
11468;BME280;5790;42.762;23.430;2023-11-19T07:14:47;74468.50;;;-142.66;88.21
11468;BME280;5790;42.762;23.430;2023-11-19T07:17:14;74480.75;;;-142.66;88.23
11468;BME280;5790;42.762;23.430;2023-11-19T07:19:43;74486.88;;;-142.66;88.23
11468;BME280;5790;42.762;23.430;2023-11-19T07:22:11;74490.97;;;-142.66;87.90
11468;BME280;5790;42.762;23.430;2023-11-19T07:24:39;74490.97;;;-142.66;87.65
11468;BME280;5790;42.762;23.430;2023-11-19T07:27:06;74484.84;;;-142.66;87.98
11468;BME280;5790;42.762;23.430;2023-11-19T07:29:34;74480.75;;;-142.66;87.65
11468;BME280;5790;42.762;23.430;2023-11-19T07:32:01;74468.50;;;-142.66;88.12
11468;BME280;5790;42.762;23.430;2023-11-19T07:34:28;74495.06;;;-142.66;88.07
11468;BME280;5790;42.762;23.430;2023-11-19T07:36:55;74501.19;;;-142.66;87.65
11468;BME280;5790;42.762;23.430;2023-11-19T07:39:29;74501.19;;;-142.66;87.73
11468;BME280;5790;42.762;23.430;2023-11-19T07:41:56;74507.31;;;-142.66;87.85
11468;BME280;5790;42.762;23.430;2023-11-19T07:44:23;74505.28;;;-142.66;87.76
11468;BME280;5790;42.762;23.430;2023-11-19T07:46:51;74505.28;;;-142.66;88.34
11468;BME280;5790;42.762;23.430;2023-11-19T07:49:19;74490.97;;;-142.66;88.06
11468;BME280;5790;42.762;23.430;2023-11-19T07:51:46;74513.44;;;-142.66;87.54
11468;BME280;5790;42.762;23.430;2023-11-19T07:54:13;74515.47;;;-142.66;88.39
11468;BME280;5790;42.762;23.430;2023-11-19T07:56:42;74507.31;;;-142.66;87.91
11468;BME280;5790;42.762;23.430;2023-11-19T07:59:09;74499.16;;;-142.66;88.04
11468;BME280;5790;42.762;23.430;2023-11-19T08:01:36;74497.09;;;-142.66;87.96
11468;BME280;5790;42.762;23.430;2023-11-19T08:04:04;74501.19;;;-142.66;87.25
11468;BME280;5790;42.762;23.430;2023-11-19T08:06:31;74511.41;;;-142.66;87.62
11468;BME280;5790;42.762;23.430;2023-11-19T08:08:58;74519.56;;;-142.66;88.19
11468;BME280;5790;42.762;23.430;2023-11-19T08:11:26;74507.31;;;-142.66;87.82
11468;BME280;5790;42.762;23.430;2023-11-19T08:13:54;74517.53;;;-142.66;87.81
11468;BME280;5790;42.762;23.430;2023-11-19T08:16:21;74509.34;;;-142.66;88.12
11468;BME280;5790;42.762;23.430;2023-11-19T08:18:49;74519.56;;;-142.66;87.53
11468;BME280;5790;42.762;23.430;2023-11-19T08:21:16;74527.72;;;-142.66;87.27
11468;BME280;5790;42.762;23.430;2023-11-19T08:23:43;74515.47;;;-142.66;87.72
11468;BME280;5790;42.762;23.430;2023-11-19T08:26:10;74509.34;;;-142.66;87.79
11468;BME280;5790;42.762;23.430;2023-11-19T08:28:37;74507.31;;;-142.66;87.49
11468;BME280;5790;42.762;23.430;2023-11-19T08:31:06;74503.22;;;-142.66;87.52
11468;BME280;5790;42.762;23.430;2023-11-19T08:33:33;74503.22;;;-142.66;87.46
11468;BME280;5790;42.762;23.430;2023-11-19T08:36:01;74513.44;;;-142.66;87.44
11468;BME280;5790;42.762;23.430;2023-11-19T08:38:29;74511.41;;;-142.66;87.57
11468;BME280;5790;42.762;23.430;2023-11-19T08:40:56;74525.69;;;-142.66;87.29
11468;BME280;5790;42.762;23.430;2023-11-19T08:43:25;74523.66;;;-142.66;87.36
11468;BME280;5790;42.762;23.430;2023-11-19T08:45:53;74521.59;;;-142.66;87.51
11468;BME280;5790;42.762;23.430;2023-11-19T08:48:21;74525.69;;;-142.66;87.10
11468;BME280;5790;42.762;23.430;2023-11-19T08:50:49;74505.28;;;-142.66;87.68
11468;BME280;5790;42.762;23.430;2023-11-19T08:53:16;74505.28;;;-142.66;87.27
11468;BME280;5790;42.762;23.430;2023-11-19T08:55:43;74499.16;;;-142.66;87.74
11468;BME280;5790;42.762;23.430;2023-11-19T08:58:10;74501.19;;;-142.66;86.54
11468;BME280;5790;42.762;23.430;2023-11-19T09:00:38;74497.09;;;-142.66;85.86
11468;BME280;5790;42.762;23.430;2023-11-19T09:03:05;74497.09;;;-142.66;85.90
11468;BME280;5790;42.762;23.430;2023-11-19T09:05:34;74482.81;;;-142.66;86.15
11468;BME280;5790;42.762;23.430;2023-11-19T09:08:01;74476.69;;;-142.66;86.18
11468;BME280;5790;42.762;23.430;2023-11-19T09:10:29;74476.69;;;-142.66;86.15
11468;BME280;5790;42.762;23.430;2023-11-19T09:12:57;74460.34;;;-142.66;86.26
11468;BME280;5790;42.762;23.430;2023-11-19T09:15:24;74452.19;;;-142.66;86.37
11468;BME280;5790;42.762;23.430;2023-11-19T09:17:51;74460.34;;;-142.66;85.38
11468;BME280;5790;42.762;23.430;2023-11-19T09:20:18;74476.69;;;-142.66;84.92
11468;BME280;5790;42.762;23.430;2023-11-19T09:22:47;74480.75;;;-142.66;85.28
11468;BME280;5790;42.762;23.430;2023-11-19T09:25:15;74478.72;;;-142.66;85.63
11468;BME280;5790;42.762;23.430;2023-11-19T09:27:42;74480.75;;;-142.66;85.19
11468;BME280;5790;42.762;23.430;2023-11-19T09:30:11;74501.19;;;-142.66;84.80
11468;BME280;5790;42.762;23.430;2023-11-19T09:32:38;74490.97;;;-142.66;84.96
11468;BME280;5790;42.762;23.430;2023-11-19T09:35:06;74493.03;;;-142.66;85.27
11468;BME280;5790;42.762;23.430;2023-11-19T09:37:34;74472.59;;;-142.66;85.35
11468;BME280;5790;42.762;23.430;2023-11-19T09:40:03;74466.47;;;-142.66;84.82
11468;BME280;5790;42.762;23.430;2023-11-19T09:42:31;74464.44;;;-142.66;84.98
11468;BME280;5790;42.762;23.430;2023-11-19T09:45:13;74452.19;;;-142.66;84.92
11468;BME280;5790;42.762;23.430;2023-11-19T09:47:42;74425.63;;;-142.66;85.11
11468;BME280;5790;42.762;23.430;2023-11-19T09:50:11;74429.72;;;-142.66;84.42
11468;BME280;5790;42.762;23.430;2023-11-19T09:52:39;74423.59;;;-142.66;84.77
11468;BME280;5790;42.762;23.430;2023-11-19T09:55:08;74417.47;;;-142.66;84.53
11468;BME280;5790;42.762;23.430;2023-11-19T09:57:38;74425.63;;;-142.66;84.36
11468;BME280;5790;42.762;23.430;2023-11-19T10:00:07;74411.34;;;-142.66;84.63
11468;BME280;5790;42.762;23.430;2023-11-19T10:02:36;74405.22;;;-142.66;83.97
11468;BME280;5790;42.762;23.430;2023-11-19T10:05:06;74390.91;;;-142.66;83.82
11468;BME280;5790;42.762;23.430;2023-11-19T10:07:34;74390.91;;;-142.66;84.06
11468;BME280;5790;42.762;23.430;2023-11-19T10:10:01;74388.88;;;-142.66;83.44
11468;BME280;5790;42.762;23.430;2023-11-19T10:12:31;74395.00;;;-142.66;82.83
11468;BME280;5790;42.762;23.430;2023-11-19T10:14:59;74403.16;;;-142.66;83.22
11468;BME280;5790;42.762;23.430;2023-11-19T10:17:29;74395.00;;;-142.66;83.58
11468;BME280;5790;42.762;23.430;2023-11-19T10:19:59;74378.66;;;-142.66;83.88
11468;BME280;5790;42.762;23.430;2023-11-19T10:22:27;74372.53;;;-142.66;82.81
11468;BME280;5790;42.762;23.430;2023-11-19T10:24:54;74378.66;;;-142.66;81.54
11468;BME280;5790;42.762;23.430;2023-11-19T10:27:24;74390.91;;;-142.66;81.32
11468;BME280;5790;42.762;23.430;2023-11-19T10:29:52;74403.16;;;-142.66;81.72
11468;BME280;5790;42.762;23.430;2023-11-19T10:32:19;74399.09;;;-142.66;81.75
11468;BME280;5790;42.762;23.430;2023-11-19T10:34:47;74392.97;;;-142.66;81.50
11468;BME280;5790;42.762;23.430;2023-11-19T10:37:27;74388.88;;;-142.66;81.65
11468;BME280;5790;42.762;23.430;2023-11-19T10:39:55;74384.78;;;-142.66;82.13
11468;BME280;5790;42.762;23.430;2023-11-19T10:42:22;74370.50;;;-142.66;81.63
11468;BME280;5790;42.762;23.430;2023-11-19T10:44:49;74350.06;;;-142.66;81.96
11468;BME280;5790;42.762;23.430;2023-11-19T10:47:19;74339.88;;;-142.66;81.27
11468;BME280;5790;42.762;23.430;2023-11-19T10:49:47;74358.25;;;-142.66;81.40
11468;BME280;5790;42.762;23.430;2023-11-19T10:52:17;74352.13;;;-142.66;81.06
11468;BME280;5790;42.762;23.430;2023-11-19T10:54:49;74360.28;;;-142.66;81.26
11468;BME280;5790;42.762;23.430;2023-11-19T10:57:20;74358.25;;;-142.66;81.37
11468;BME280;5790;42.762;23.430;2023-11-19T10:59:52;74380.72;;;-142.66;80.98
11468;BME280;5790;42.762;23.430;2023-11-19T11:02:25;74360.28;;;-142.66;81.99
11468;BME280;5790;42.762;23.430;2023-11-19T11:04:53;74360.28;;;-142.66;81.31
11468;BME280;5790;42.762;23.430;2023-11-19T11:07:22;74335.78;;;-142.66;81.07
11468;BME280;5790;42.762;23.430;2023-11-19T11:09:51;74325.56;;;-142.66;81.50
11468;BME280;5790;42.762;23.430;2023-11-19T11:12:22;74325.56;;;-142.66;80.59
11468;BME280;5790;42.762;23.430;2023-11-19T11:14:51;74319.44;;;-142.66;80.71
11468;BME280;5790;42.762;23.430;2023-11-19T11:17:25;74303.13;;;-142.66;80.38
11468;BME280;5790;42.762;23.430;2023-11-19T11:19:55;74299.03;;;-142.66;81.17
11468;BME280;5790;42.762;23.430;2023-11-19T11:22:22;74311.28;;;-142.66;80.27
11468;BME280;5790;42.762;23.430;2023-11-19T11:25:06;74299.03;;;-142.66;80.99
11468;BME280;5790;42.762;23.430;2023-11-19T11:28:06;74307.19;;;-142.66;80.18
11468;BME280;5790;42.762;23.430;2023-11-19T11:30:46;74299.03;;;-142.66;80.43
11468;BME280;5790;42.762;23.430;2023-11-19T11:33:31;74294.94;;;-142.66;80.28
11468;BME280;5790;42.762;23.430;2023-11-19T11:36:10;74307.19;;;-142.66;80.21
11468;BME280;5790;42.762;23.430;2023-11-19T11:38:40;74292.91;;;-142.66;80.42
11468;BME280;5790;42.762;23.430;2023-11-19T11:41:19;74280.66;;;-142.66;80.56
11468;BME280;5790;42.762;23.430;2023-11-19T11:43:48;74284.75;;;-142.66;80.49
11468;BME280;5790;42.762;23.430;2023-11-19T11:46:53;74272.47;;;-142.66;80.96
11468;BME280;5790;42.762;23.430;2023-11-19T11:49:29;74270.44;;;-142.66;80.07
11468;BME280;5790;42.762;23.430;2023-11-19T11:52:01;74266.34;;;-142.66;79.80
11468;BME280;5790;42.762;23.430;2023-11-19T11:54:31;74254.09;;;-142.66;79.73
11468;BME280;5790;42.762;23.430;2023-11-19T11:57:06;74262.28;;;-142.66;79.19
11468;BME280;5790;42.762;23.430;2023-11-19T11:59:42;74272.47;;;-142.66;79.18
11468;BME280;5790;42.762;23.430;2023-11-19T12:02:11;74272.47;;;-142.66;79.29
11468;BME280;5790;42.762;23.430;2023-11-19T12:04:41;74268.41;;;-142.66;79.63
11468;BME280;5790;42.762;23.430;2023-11-19T12:07:12;74260.22;;;-142.66;79.58
11468;BME280;5790;42.762;23.430;2023-11-19T12:09:40;74262.28;;;-142.66;79.43
11468;BME280;5790;42.762;23.430;2023-11-19T12:12:12;74239.81;;;-142.66;78.83
11468;BME280;5790;42.762;23.430;2023-11-19T12:15:05;74241.84;;;-142.66;79.73
11468;BME280;5790;42.762;23.430;2023-11-19T12:17:44;74227.56;;;-142.66;78.89
11468;BME280;5790;42.762;23.430;2023-11-19T12:20:17;74201.03;;;-142.66;79.25
11468;BME280;5790;42.762;23.430;2023-11-19T12:22:45;74178.56;;;-142.66;78.03
11468;BME280;5790;42.762;23.430;2023-11-19T12:25:12;74160.19;;;-142.66;78.51
11468;BME280;5790;42.762;23.430;2023-11-19T12:27:40;74166.31;;;-142.66;77.89
11468;BME280;5790;42.762;23.430;2023-11-19T12:30:08;74160.19;;;-142.66;78.35
11468;BME280;5790;42.762;23.430;2023-11-19T12:32:39;74154.06;;;-142.66;78.37
11468;BME280;5790;42.762;23.430;2023-11-19T12:35:07;74133.63;;;-142.66;78.70
11468;BME280;5790;42.762;23.430;2023-11-19T12:37:45;74133.63;;;-142.66;79.26
11468;BME280;5790;42.762;23.430;2023-11-19T12:40:14;74141.81;;;-142.66;77.52
11468;BME280;5790;42.762;23.430;2023-11-19T12:42:43;74135.69;;;-142.66;77.92
11468;BME280;5790;42.762;23.430;2023-11-19T12:45:10;74117.31;;;-142.66;78.81
11468;BME280;5790;42.762;23.430;2023-11-19T12:47:38;74105.06;;;-142.66;76.78